sensor_id;sensor_type;location;lat;lon;timestamp;pressure;altitude;pressure_sealevel;temperature;humidity
50696;BME280;36665;51.786;21.594;2023-09-07T00:00:36;93630.13;;;12.35;60.92
50696;BME280;36665;51.786;21.594;2023-09-07T00:09:22;93603.24;;;12.28;60.82
50696;BME280;36665;51.786;21.594;2023-09-07T00:17:47;93579.54;;;12.22;60.85
50696;BME280;36665;51.786;21.594;2023-09-07T00:26:10;93572.15;;;12.20;60.82
50696;BME280;36665;51.786;21.594;2023-09-07T00:34:35;93553.56;;;12.15;60.91
50696;BME280;36665;51.786;21.594;2023-09-07T00:42:59;93521.58;;;12.06;60.83
50696;BME280;36665;51.786;21.594;2023-09-07T00:51:23;93470.67;;;11.93;61.00
50696;BME280;36665;51.786;21.594;2023-09-07T00:59:47;93425.40;;;11.81;60.85
50696;BME280;36665;51.786;21.594;2023-09-07T01:08:19;93412.13;;;11.78;61.00
50696;BME280;36665;51.786;21.594;2023-09-07T01:16:50;93399.56;;;11.74;60.96
50696;BME280;36665;51.786;21.594;2023-09-07T01:25:15;93405.60;;;11.76;61.03
50696;BME280;36665;51.786;21.594;2023-09-07T01:33:38;93382.28;;;11.70;61.03
50696;BME280;36665;51.786;21.594;2023-09-07T01:42:01;93368.70;;;11.66;60.91
50696;BME280;36665;51.786;21.594;2023-09-07T01:50:23;93358.13;;;11.63;61.13
50696;BME280;36665;51.786;21.594;2023-09-07T01:58:48;93340.51;;;11.57;61.08
50696;BME280;36665;51.786;21.594;2023-09-07T02:07:12;93303.04;;;11.48;61.34
50696;BME280;36665;51.786;21.594;2023-09-07T02:15:40;93293.73;;;11.46;61.16
50696;BME280;36665;51.786;21.594;2023-09-07T02:24:04;93304.84;;;11.48;61.21
50696;BME280;36665;51.786;21.594;2023-09-07T02:32:27;93285.63;;;11.43;61.07
50696;BME280;36665;51.786;21.594;2023-09-07T02:40:51;93257.55;;;11.37;61.47
50696;BME280;36665;51.786;21.594;2023-09-07T02:49:16;93229.20;;;11.28;61.09
50696;BME280;36665;51.786;21.594;2023-09-07T02:57:39;93219.59;;;11.25;61.19
50696;BME280;36665;51.786;21.594;2023-09-07T03:06:13;93193.14;;;11.19;61.14
50696;BME280;36665;51.786;21.594;2023-09-07T03:14:43;93160.06;;;11.09;61.21
50696;BME280;36665;51.786;21.594;2023-09-07T03:23:08;93121.86;;;11.00;61.38
50696;BME280;36665;51.786;21.594;2023-09-07T03:31:32;93127.75;;;11.01;61.35
50696;BME280;36665;51.786;21.594;2023-09-07T03:39:56;93133.16;;;11.04;61.53
50696;BME280;36665;51.786;21.594;2023-09-07T03:48:19;93139.42;;;11.05;61.38
50696;BME280;36665;51.786;21.594;2023-09-07T03:56:43;93119.55;;;10.99;61.44
50696;BME280;36665;51.786;21.594;2023-09-07T04:05:06;93120.25;;;10.99;61.28
50696;BME280;36665;51.786;21.594;2023-09-07T04:13:29;93098.59;;;10.93;61.61
50696;BME280;36665;51.786;21.594;2023-09-07T04:21:53;93094.76;;;10.92;61.48
50696;BME280;36665;51.786;21.594;2023-09-07T04:30:16;93124.38;;;10.99;61.57
50696;BME280;36665;51.786;21.594;2023-09-07T04:38:41;93151.66;;;11.06;61.73
50696;BME280;36665;51.786;21.594;2023-09-07T04:47:05;93182.16;;;11.14;61.57
50696;BME280;36665;51.786;21.594;2023-09-07T04:55:28;93234.20;;;11.28;61.84
50696;BME280;36665;51.786;21.594;2023-09-07T05:03:51;93314.67;;;11.50;61.89
50696;BME280;36665;51.786;21.594;2023-09-07T05:12:15;93425.02;;;11.78;61.92
50696;BME280;36665;51.786;21.594;2023-09-07T05:20:42;93550.33;;;12.12;61.83
50696;BME280;36665;51.786;21.594;2023-09-07T05:29:05;93963.67;;;13.19;62.05
50696;BME280;36665;51.786;21.594;2023-09-07T05:37:28;94553.45;;;14.71;62.77
50696;BME280;36665;51.786;21.594;2023-09-07T05:45:51;95361.83;;;16.74;63.07
50696;BME280;36665;51.786;21.594;2023-09-07T05:54:14;95875.56;;;17.99;63.20
50696;BME280;36665;51.786;21.594;2023-09-07T06:02:38;96012.19;;;18.31;63.53
50696;BME280;36665;51.786;21.594;2023-09-07T06:11:03;96011.86;;;18.30;63.72
50696;BME280;36665;51.786;21.594;2023-09-07T06:19:26;96184.32;;;18.71;63.71
50696;BME280;36665;51.786;21.594;2023-09-07T06:27:49;96513.30;;;19.50;63.89
50696;BME280;36665;51.786;21.594;2023-09-07T06:36:12;96949.08;;;20.52;64.40
50696;BME280;36665;51.786;21.594;2023-09-07T06:44:35;97392.99;;;21.55;64.44
50696;BME280;36665;51.786;21.594;2023-09-07T06:52:58;97784.69;;;22.46;64.42
50696;BME280;36665;51.786;21.594;2023-09-07T07:01:21;98116.69;;;23.20;64.94
50696;BME280;36665;51.786;21.594;2023-09-07T07:09:45;98378.20;;;23.78;64.98
50696;BME280;36665;51.786;21.594;2023-09-07T07:18:08;98533.42;;;24.12;65.07
50696;BME280;36665;51.786;21.594;2023-09-07T07:26:32;98531.31;;;24.09;65.16
50696;BME280;36665;51.786;21.594;2023-09-07T07:34:56;98391.67;;;23.77;65.35
50696;BME280;36665;51.786;21.594;2023-09-07T07:43:20;98297.58;;;23.53;65.41
50696;BME280;36665;51.786;21.594;2023-09-07T07:51:44;98312.58;;;23.56;65.50
50696;BME280;36665;51.786;21.594;2023-09-07T08:00:07;98389.16;;;23.74;65.49
50696;BME280;36665;51.786;21.594;2023-09-07T08:08:40;98480.65;;;23.93;65.35
50696;BME280;36665;51.786;21.594;2023-09-07T08:17:04;98575.92;;;24.14;65.67
50696;BME280;36665;51.786;21.594;2023-09-07T08:25:28;98676.89;;;24.36;65.72
50696;BME280;36665;51.786;21.594;2023-09-07T08:33:51;98833.40;;;24.71;65.74
50696;BME280;36665;51.786;21.594;2023-09-07T08:42:15;98966.62;;;25.00;65.90
50696;BME280;36665;51.786;21.594;2023-09-07T08:50:39;99115.98;;;25.32;65.95
50696;BME280;36665;51.786;21.594;2023-09-07T08:59:05;99248.52;;;25.60;66.11
50696;BME280;36665;51.786;21.594;2023-09-07T09:07:28;99345.86;;;25.80;66.10
50696;BME280;36665;51.786;21.594;2023-09-07T09:15:51;99427.96;;;25.99;66.07
50696;BME280;36665;51.786;21.594;2023-09-07T09:24:15;99451.77;;;26.03;66.05
50696;BME280;36665;51.786;21.594;2023-09-07T09:32:39;99458.67;;;26.04;66.08
50696;BME280;36665;51.786;21.594;2023-09-07T09:41:03;99482.95;;;26.10;65.79
50696;BME280;36665;51.786;21.594;2023-09-07T09:49:27;99492.91;;;26.12;65.91
50696;BME280;36665;51.786;21.594;2023-09-07T09:57:50;99492.19;;;26.10;65.88
50696;BME280;36665;51.786;21.594;2023-09-07T10:06:24;99547.87;;;26.23;65.90
50696;BME280;36665;51.786;21.594;2023-09-07T10:14:48;99598.73;;;26.35;65.80
50696;BME280;36665;51.786;21.594;2023-09-07T10:23:16;99562.21;;;26.26;65.93
50696;BME280;36665;51.786;21.594;2023-09-07T10:31:39;99357.42;;;25.82;65.59
50696;BME280;36665;51.786;21.594;2023-09-07T10:40:20;99194.89;;;25.47;65.74
50696;BME280;36665;51.786;21.594;2023-09-07T10:48:44;99275.89;;;25.65;65.71
50696;BME280;36665;51.786;21.594;2023-09-07T10:57:11;99354.40;;;25.82;65.60
50696;BME280;36665;51.786;21.594;2023-09-07T11:05:40;99413.01;;;25.97;65.70
50696;BME280;36665;51.786;21.594;2023-09-07T11:14:04;99569.60;;;26.30;65.66
50696;BME280;36665;51.786;21.594;2023-09-07T11:22:28;99670.45;;;26.53;65.52
50696;BME280;36665;51.786;21.594;2023-09-07T11:30:52;99782.38;;;26.77;65.48
50696;BME280;36665;51.786;21.594;2023-09-07T11:39:16;99773.80;;;26.75;65.54
50696;BME280;36665;51.786;21.594;2023-09-07T11:47:39;99586.66;;;26.35;65.43
50696;BME280;36665;51.786;21.594;2023-09-07T11:56:02;99553.23;;;26.28;65.27
50696;BME280;36665;51.786;21.594;2023-09-07T12:04:25;99669.77;;;26.54;65.06
50696;BME280;36665;51.786;21.594;2023-09-07T12:12:49;99748.48;;;26.72;65.19
50696;BME280;36665;51.786;21.594;2023-09-07T12:21:11;99724.48;;;26.67;65.10
50696;BME280;36665;51.786;21.594;2023-09-07T12:29:34;99530.70;;;26.25;65.11
50696;BME280;36665;51.786;21.594;2023-09-07T12:37:57;99326.64;;;25.82;64.88
50696;BME280;36665;51.786;21.594;2023-09-07T12:46:21;99367.51;;;25.90;64.78
50696;BME280;36665;51.786;21.594;2023-09-07T12:54:44;99525.28;;;26.26;64.77
50696;BME280;36665;51.786;21.594;2023-09-07T13:03:08;99680.95;;;26.60;64.70
50696;BME280;36665;51.786;21.594;2023-09-07T13:11:31;99720.80;;;26.70;64.65
50696;BME280;36665;51.786;21.594;2023-09-07T13:19:54;99647.59;;;26.54;64.63
50696;BME280;36665;51.786;21.594;2023-09-07T13:28:17;99401.80;;;26.01;64.49
50696;BME280;36665;51.786;21.594;2023-09-07T13:36:41;99166.69;;;25.50;64.44
50696;BME280;36665;51.786;21.594;2023-09-07T13:45:06;98970.91;;;25.08;64.17
50696;BME280;36665;51.786;21.594;2023-09-07T13:53:29;98847.33;;;24.80;64.13
50696;BME280;36665;51.786;21.594;2023-09-07T14:01:52;98858.39;;;24.84;63.99
50696;BME280;36665;51.786;21.594;2023-09-07T14:10:15;98978.59;;;25.12;63.85
50696;BME280;36665;51.786;21.594;2023-09-07T14:18:38;99078.63;;;25.35;63.81
50696;BME280;36665;51.786;21.594;2023-09-07T14:27:02;99127.93;;;25.46;63.67
50696;BME280;36665;51.786;21.594;2023-09-07T14:35:26;99153.70;;;25.52;63.86
50696;BME280;36665;51.786;21.594;2023-09-07T14:43:49;99170.23;;;25.57;63.69
50696;BME280;36665;51.786;21.594;2023-09-07T14:52:12;99199.02;;;25.62;63.69
50696;BME280;36665;51.786;21.594;2023-09-07T15:00:35;99222.41;;;25.69;63.81
50696;BME280;36665;51.786;21.594;2023-09-07T15:08:58;99244.53;;;25.74;63.71
50696;BME280;36665;51.786;21.594;2023-09-07T15:17:20;99258.33;;;25.77;63.56
50696;BME280;36665;51.786;21.594;2023-09-07T15:25:44;99222.13;;;25.70;63.57
50696;BME280;36665;51.786;21.594;2023-09-07T15:34:07;99120.18;;;25.49;63.16
50696;BME280;36665;51.786;21.594;2023-09-07T15:42:30;99004.76;;;25.24;63.29
50696;BME280;36665;51.786;21.594;2023-09-07T15:50:53;98884.29;;;24.97;63.02
50696;BME280;36665;51.786;21.594;2023-09-07T15:59:16;98746.02;;;24.66;63.07
50696;BME280;36665;51.786;21.594;2023-09-07T16:07:39;98614.98;;;24.37;63.06
50696;BME280;36665;51.786;21.594;2023-09-07T16:16:03;98501.89;;;24.12;62.72
50696;BME280;36665;51.786;21.594;2023-09-07T16:24:26;98391.81;;;23.87;62.70
50696;BME280;36665;51.786;21.594;2023-09-07T16:32:49;98280.42;;;23.62;62.63
50696;BME280;36665;51.786;21.594;2023-09-07T16:41:12;98167.11;;;23.38;62.54
50696;BME280;36665;51.786;21.594;2023-09-07T16:49:37;98035.87;;;23.07;62.41
50696;BME280;36665;51.786;21.594;2023-09-07T16:58:06;97875.41;;;22.71;62.43
50696;BME280;36665;51.786;21.594;2023-09-07T17:06:29;97714.19;;;22.34;62.26
50696;BME280;36665;51.786;21.594;2023-09-07T17:14:53;97529.34;;;21.90;62.14
50696;BME280;36665;51.786;21.594;2023-09-07T17:23:16;97342.91;;;21.48;61.97
50696;BME280;36665;51.786;21.594;2023-09-07T17:31:41;97175.11;;;21.08;61.83
50696;BME280;36665;51.786;21.594;2023-09-07T17:40:05;97027.91;;;20.74;61.70
50696;BME280;36665;51.786;21.594;2023-09-07T17:48:28;96900.03;;;20.43;61.76
50696;BME280;36665;51.786;21.594;2023-09-07T17:56:51;96792.02;;;20.18;61.89
50696;BME280;36665;51.786;21.594;2023-09-07T18:05:14;96681.87;;;19.93;61.71
50696;BME280;36665;51.786;21.594;2023-09-07T18:13:42;96572.08;;;19.67;61.75
50696;BME280;36665;51.786;21.594;2023-09-07T18:22:05;96451.95;;;19.38;61.51
50696;BME280;36665;51.786;21.594;2023-09-07T18:30:31;96352.20;;;19.13;61.48
50696;BME280;36665;51.786;21.594;2023-09-07T18:38:55;96272.14;;;18.94;61.39
50696;BME280;36665;51.786;21.594;2023-09-07T18:47:19;96183.14;;;18.73;61.41
50696;BME280;36665;51.786;21.594;2023-09-07T18:55:42;96080.62;;;18.49;61.22
50696;BME280;36665;51.786;21.594;2023-09-07T19:04:10;95980.25;;;18.24;61.43
50696;BME280;36665;51.786;21.594;2023-09-07T19:12:34;95896.79;;;18.04;61.33
50696;BME280;36665;51.786;21.594;2023-09-07T19:20:58;95835.59;;;17.89;61.24
50696;BME280;36665;51.786;21.594;2023-09-07T19:29:41;95799.17;;;17.80;61.01
50696;BME280;36665;51.786;21.594;2023-09-07T19:38:07;95772.94;;;17.74;61.24
50696;BME280;36665;51.786;21.594;2023-09-07T19:46:30;95721.23;;;17.61;61.12
50696;BME280;36665;51.786;21.594;2023-09-07T19:54:55;95666.80;;;17.48;61.16
50696;BME280;36665;51.786;21.594;2023-09-07T20:03:18;95647.70;;;17.43;61.04
50696;BME280;36665;51.786;21.594;2023-09-07T20:11:49;95647.94;;;17.44;61.22
50696;BME280;36665;51.786;21.594;2023-09-07T20:20:16;95621.02;;;17.39;61.16
50696;BME280;36665;51.786;21.594;2023-09-07T20:28:39;95596.70;;;17.31;61.08
50696;BME280;36665;51.786;21.594;2023-09-07T20:37:04;95556.52;;;17.22;61.03
50696;BME280;36665;51.786;21.594;2023-09-07T20:45:27;95498.76;;;17.08;61.25
50696;BME280;36665;51.786;21.594;2023-09-07T20:53:51;95465.24;;;17.00;61.00
50696;BME280;36665;51.786;21.594;2023-09-07T21:02:15;95447.88;;;16.95;61.11
50696;BME280;36665;51.786;21.594;2023-09-07T21:10:38;95435.38;;;16.91;61.00
50696;BME280;36665;51.786;21.594;2023-09-07T21:19:03;95421.27;;;16.88;61.12
50696;BME280;36665;51.786;21.594;2023-09-07T21:27:27;95417.55;;;16.87;61.04
50696;BME280;36665;51.786;21.594;2023-09-07T21:35:51;95409.36;;;16.86;61.25
50696;BME280;36665;51.786;21.594;2023-09-07T21:44:18;95404.98;;;16.84;60.99
50696;BME280;36665;51.786;21.594;2023-09-07T21:52:41;95403.60;;;16.84;61.27
50696;BME280;36665;51.786;21.594;2023-09-07T22:01:06;95391.14;;;16.80;61.38
50696;BME280;36665;51.786;21.594;2023-09-07T22:09:31;95383.27;;;16.79;61.22
50696;BME280;36665;51.786;21.594;2023-09-07T22:17:54;95356.82;;;16.73;61.07
50696;BME280;36665;51.786;21.594;2023-09-07T22:26:17;95338.16;;;16.67;61.06
50696;BME280;36665;51.786;21.594;2023-09-07T22:34:41;95324.11;;;16.63;61.31
50696;BME280;36665;51.786;21.594;2023-09-07T22:43:06;95310.22;;;16.60;61.37
50696;BME280;36665;51.786;21.594;2023-09-07T22:51:30;95303.73;;;16.59;61.33
50696;BME280;36665;51.786;21.594;2023-09-07T22:59:55;95283.13;;;16.53;61.33
50696;BME280;36665;51.786;21.594;2023-09-07T23:08:20;95250.14;;;16.44;61.30
50696;BME280;36665;51.786;21.594;2023-09-07T23:16:43;95212.79;;;16.35;61.38
50696;BME280;36665;51.786;21.594;2023-09-07T23:25:09;95184.83;;;16.28;61.49
50696;BME280;36665;51.786;21.594;2023-09-07T23:33:36;95186.05;;;16.29;61.27
50696;BME280;36665;51.786;21.594;2023-09-07T23:42:01;95169.71;;;16.25;61.44
50696;BME280;36665;51.786;21.594;2023-09-07T23:50:24;95147.59;;;16.18;61.25
50696;BME280;36665;51.786;21.594;2023-09-07T23:58:47;95125.79;;;16.13;61.37
